sensor_id;sensor_type;location;lat;lon;timestamp;pressure;altitude;pressure_sealevel;temperature;humidity
67457;BME280;54319;52.038;4.640;2023-07-31T00:01:24;101031.88;;;16.62;100.00
67457;BME280;54319;52.038;4.640;2023-07-31T00:03:51;101018.25;;;16.55;100.00
67457;BME280;54319;52.038;4.640;2023-07-31T00:06:18;101034.34;;;16.63;100.00
67457;BME280;54319;52.038;4.640;2023-07-31T00:08:45;101031.88;;;16.62;100.00
67457;BME280;54319;52.038;4.640;2023-07-31T00:11:11;101024.69;;;16.61;100.00
67457;BME280;54319;52.038;4.640;2023-07-31T00:13:39;101029.84;;;16.57;100.00
67457;BME280;54319;52.038;4.640;2023-07-31T00:16:06;101029.25;;;16.55;100.00
67457;BME280;54319;52.038;4.640;2023-07-31T00:18:32;101036.34;;;16.51;100.00
67457;BME280;54319;52.038;4.640;2023-07-31T00:20:59;101026.56;;;16.43;100.00
67457;BME280;54319;52.038;4.640;2023-07-31T00:23:25;101019.16;;;16.44;100.00
67457;BME280;54319;52.038;4.640;2023-07-31T00:25:52;101028.81;;;16.46;100.00
67457;BME280;54319;52.038;4.640;2023-07-31T00:28:19;101013.38;;;16.45;100.00
67457;BME280;54319;52.038;4.640;2023-07-31T00:30:46;101017.91;;;16.52;100.00
67457;BME280;54319;52.038;4.640;2023-07-31T00:33:13;101003.38;;;16.39;100.00
67457;BME280;54319;52.038;4.640;2023-07-31T00:35:40;101010.88;;;16.44;100.00
67457;BME280;54319;52.038;4.640;2023-07-31T00:38:06;101024.66;;;16.44;100.00
67457;BME280;54319;52.038;4.640;2023-07-31T00:40:36;101023.47;;;16.40;100.00
67457;BME280;54319;52.038;4.640;2023-07-31T00:43:19;101022.31;;;16.35;100.00
67457;BME280;54319;52.038;4.640;2023-07-31T00:45:47;101030.66;;;16.41;100.00
67457;BME280;54319;52.038;4.640;2023-07-31T00:48:14;101017.41;;;16.38;100.00
67457;BME280;54319;52.038;4.640;2023-07-31T00:50:41;101010.59;;;16.28;100.00
67457;BME280;54319;52.038;4.640;2023-07-31T00:53:08;100997.91;;;16.27;100.00
67457;BME280;54319;52.038;4.640;2023-07-31T00:55:34;101020.16;;;16.38;100.00
67457;BME280;54319;52.038;4.640;2023-07-31T00:58:01;101000.84;;;16.20;100.00
67457;BME280;54319;52.038;4.640;2023-07-31T01:00:28;101012.97;;;16.37;100.00
67457;BME280;54319;52.038;4.640;2023-07-31T01:02:56;101015.94;;;16.35;100.00
67457;BME280;54319;52.038;4.640;2023-07-31T01:05:27;101012.03;;;16.31;100.00
67457;BME280;54319;52.038;4.640;2023-07-31T01:08:04;100990.41;;;16.23;100.00
67457;BME280;54319;52.038;4.640;2023-07-31T01:10:46;101005.78;;;16.35;100.00
67457;BME280;54319;52.038;4.640;2023-07-31T01:13:15;101015.38;;;16.33;100.00
67457;BME280;54319;52.038;4.640;2023-07-31T01:15:44;101015.63;;;16.31;100.00
67457;BME280;54319;52.038;4.640;2023-07-31T01:18:17;101019.47;;;16.30;100.00
67457;BME280;54319;52.038;4.640;2023-07-31T01:20:48;101009.41;;;16.24;100.00
67457;BME280;54319;52.038;4.640;2023-07-31T01:23:31;101005.88;;;16.12;100.00
67457;BME280;54319;52.038;4.640;2023-07-31T01:26:19;101013.91;;;16.13;100.00
67457;BME280;54319;52.038;4.640;2023-07-31T01:28:55;101016.06;;;16.11;100.00
67457;BME280;54319;52.038;4.640;2023-07-31T01:31:24;100995.59;;;16.07;100.00
67457;BME280;54319;52.038;4.640;2023-07-31T01:33:53;100999.31;;;16.13;100.00
67457;BME280;54319;52.038;4.640;2023-07-31T01:36:21;100998.13;;;16.09;100.00
67457;BME280;54319;52.038;4.640;2023-07-31T01:38:48;100999.81;;;16.10;100.00
67457;BME280;54319;52.038;4.640;2023-07-31T01:41:25;100981.53;;;16.03;100.00
67457;BME280;54319;52.038;4.640;2023-07-31T01:43:52;100996.91;;;16.16;100.00
67457;BME280;54319;52.038;4.640;2023-07-31T01:46:19;100990.06;;;16.19;100.00
67457;BME280;54319;52.038;4.640;2023-07-31T01:48:45;100986.22;;;16.20;100.00
67457;BME280;54319;52.038;4.640;2023-07-31T01:51:12;100979.41;;;16.23;100.00
67457;BME280;54319;52.038;4.640;2023-07-31T01:53:39;100963.63;;;16.18;100.00
67457;BME280;54319;52.038;4.640;2023-07-31T01:56:05;100966.53;;;16.28;100.00
67457;BME280;54319;52.038;4.640;2023-07-31T01:58:33;100963.56;;;16.30;100.00
67457;BME280;54319;52.038;4.640;2023-07-31T02:01:00;100962.47;;;16.31;100.00
67457;BME280;54319;52.038;4.640;2023-07-31T02:03:26;100955.53;;;16.28;100.00
67457;BME280;54319;52.038;4.640;2023-07-31T02:05:54;100932.94;;;16.26;100.00
67457;BME280;54319;52.038;4.640;2023-07-31T02:08:22;100941.88;;;16.33;100.00
67457;BME280;54319;52.038;4.640;2023-07-31T02:10:51;100943.56;;;16.34;100.00
67457;BME280;54319;52.038;4.640;2023-07-31T02:13:17;100941.38;;;16.37;100.00
67457;BME280;54319;52.038;4.640;2023-07-31T02:15:47;100926.53;;;16.38;100.00
67457;BME280;54319;52.038;4.640;2023-07-31T02:18:14;100938.38;;;16.38;100.00
67457;BME280;54319;52.038;4.640;2023-07-31T02:20:41;100927.88;;;16.35;100.00
67457;BME280;54319;52.038;4.640;2023-07-31T02:23:08;100932.88;;;16.38;100.00
67457;BME280;54319;52.038;4.640;2023-07-31T02:25:34;100944.72;;;16.39;100.00
67457;BME280;54319;52.038;4.640;2023-07-31T02:28:01;100948.56;;;16.38;100.00
67457;BME280;54319;52.038;4.640;2023-07-31T02:30:27;100941.72;;;16.40;100.00
67457;BME280;54319;52.038;4.640;2023-07-31T02:32:55;100935.69;;;16.43;100.00
67457;BME280;54319;52.038;4.640;2023-07-31T02:35:22;100932.88;;;16.38;100.00
67457;BME280;54319;52.038;4.640;2023-07-31T02:37:48;100943.72;;;16.45;100.00
67457;BME280;54319;52.038;4.640;2023-07-31T02:40:32;100938.72;;;16.42;100.00
67457;BME280;54319;52.038;4.640;2023-07-31T02:42:59;100936.56;;;16.44;100.00
67457;BME280;54319;52.038;4.640;2023-07-31T02:45:26;100932.38;;;16.41;100.00
67457;BME280;54319;52.038;4.640;2023-07-31T02:47:52;100938.13;;;16.40;100.00
67457;BME280;54319;52.038;4.640;2023-07-31T02:50:20;100943.38;;;16.41;100.00
67457;BME280;54319;52.038;4.640;2023-07-31T02:52:47;100932.03;;;16.38;100.00
67457;BME280;54319;52.038;4.640;2023-07-31T02:55:14;100930.13;;;16.38;100.00
67457;BME280;54319;52.038;4.640;2023-07-31T02:57:41;100917.19;;;16.39;100.00
67457;BME280;54319;52.038;4.640;2023-07-31T03:00:08;100917.94;;;16.34;100.00
67457;BME280;54319;52.038;4.640;2023-07-31T03:02:35;100909.09;;;16.32;100.00
67457;BME280;54319;52.038;4.640;2023-07-31T03:05:02;100910.75;;;16.33;100.00
67457;BME280;54319;52.038;4.640;2023-07-31T03:07:30;100894.97;;;16.28;100.00
67457;BME280;54319;52.038;4.640;2023-07-31T03:09:57;100912.69;;;16.32;100.00
67457;BME280;54319;52.038;4.640;2023-07-31T03:12:23;100902.50;;;16.33;100.00
67457;BME280;54319;52.038;4.640;2023-07-31T03:14:50;100911.84;;;16.32;100.00
67457;BME280;54319;52.038;4.640;2023-07-31T03:17:16;100901.69;;;16.32;100.00
67457;BME280;54319;52.038;4.640;2023-07-31T03:19:43;100891.50;;;16.33;100.00
67457;BME280;54319;52.038;4.640;2023-07-31T03:22:10;100896.75;;;16.34;100.00
67457;BME280;54319;52.038;4.640;2023-07-31T03:24:38;100899.25;;;16.36;100.00
67457;BME280;54319;52.038;4.640;2023-07-31T03:27:05;100891.56;;;16.38;100.00
67457;BME280;54319;52.038;4.640;2023-07-31T03:29:35;100889.66;;;16.39;100.00
67457;BME280;54319;52.038;4.640;2023-07-31T03:32:02;100895.41;;;16.37;100.00
67457;BME280;54319;52.038;4.640;2023-07-31T03:34:30;100900.34;;;16.35;100.00
67457;BME280;54319;52.038;4.640;2023-07-31T03:36:57;100888.50;;;16.34;100.00
67457;BME280;54319;52.038;4.640;2023-07-31T03:39:24;100896.25;;;16.38;100.00
67457;BME280;54319;52.038;4.640;2023-07-31T03:41:52;100894.00;;;16.34;100.00
67457;BME280;54319;52.038;4.640;2023-07-31T03:44:19;100893.44;;;16.32;100.00
67457;BME280;54319;52.038;4.640;2023-07-31T03:46:45;100893.44;;;16.32;100.00
67457;BME280;54319;52.038;4.640;2023-07-31T03:49:12;100883.56;;;16.37;100.00
67457;BME280;54319;52.038;4.640;2023-07-31T03:51:39;100866.41;;;16.29;100.00
67457;BME280;54319;52.038;4.640;2023-07-31T03:54:06;100871.22;;;16.22;100.00
67457;BME280;54319;52.038;4.640;2023-07-31T03:56:33;100875.47;;;16.30;100.00
67457;BME280;54319;52.038;4.640;2023-07-31T03:59:01;100869.63;;;16.26;100.00
67457;BME280;54319;52.038;4.640;2023-07-31T04:01:28;100865.72;;;16.22;100.00
67457;BME280;54319;52.038;4.640;2023-07-31T04:03:54;100864.03;;;16.21;100.00
67457;BME280;54319;52.038;4.640;2023-07-31T04:06:21;100853.63;;;16.23;100.00
67457;BME280;54319;52.038;4.640;2023-07-31T04:08:48;100858.81;;;16.19;100.00
67457;BME280;54319;52.038;4.640;2023-07-31T04:11:14;100856.78;;;16.15;100.00
67457;BME280;54319;52.038;4.640;2023-07-31T04:13:41;100846.94;;;16.19;100.00
67457;BME280;54319;52.038;4.640;2023-07-31T04:16:09;100857.78;;;16.09;100.00
67457;BME280;54319;52.038;4.640;2023-07-31T04:18:35;100853.44;;;16.13;100.00
67457;BME280;54319;52.038;4.640;2023-07-31T04:21:02;100852.19;;;16.03;100.00
67457;BME280;54319;52.038;4.640;2023-07-31T04:23:29;100843.59;;;16.00;100.00
67457;BME280;54319;52.038;4.640;2023-07-31T04:25:57;100850.44;;;15.97;100.00
67457;BME280;54319;52.038;4.640;2023-07-31T04:28:24;100848.78;;;15.96;100.00
67457;BME280;54319;52.038;4.640;2023-07-31T04:30:51;100843.19;;;15.91;100.00
67457;BME280;54319;52.038;4.640;2023-07-31T04:33:19;100840.56;;;15.84;100.00
67457;BME280;54319;52.038;4.640;2023-07-31T04:36:01;100829.44;;;15.91;100.00
67457;BME280;54319;52.038;4.640;2023-07-31T04:38:27;100823.22;;;15.84;100.00
67457;BME280;54319;52.038;4.640;2023-07-31T04:40:54;100804.44;;;15.81;100.00
67457;BME280;54319;52.038;4.640;2023-07-31T04:43:21;100798.19;;;15.68;100.00
67457;BME280;54319;52.038;4.640;2023-07-31T04:45:48;100826.38;;;15.75;100.00
67457;BME280;54319;52.038;4.640;2023-07-31T04:48:15;100828.53;;;15.73;100.00
67457;BME280;54319;52.038;4.640;2023-07-31T04:50:43;100819.69;;;15.71;100.00
67457;BME280;54319;52.038;4.640;2023-07-31T04:53:10;100816.00;;;15.66;100.00
67457;BME280;54319;52.038;4.640;2023-07-31T04:55:38;100818.63;;;15.72;100.00
67457;BME280;54319;52.038;4.640;2023-07-31T04:58:07;100816.38;;;15.69;100.00
67457;BME280;54319;52.038;4.640;2023-07-31T05:00:34;100824.84;;;15.68;100.00
67457;BME280;54319;52.038;4.640;2023-07-31T05:03:00;100806.34;;;15.63;100.00
67457;BME280;54319;52.038;4.640;2023-07-31T05:05:27;100806.53;;;15.73;100.00
67457;BME280;54319;52.038;4.640;2023-07-31T05:07:55;100800.59;;;15.65;100.00
67457;BME280;54319;52.038;4.640;2023-07-31T05:10:22;100806.75;;;15.72;100.00
67457;BME280;54319;52.038;4.640;2023-07-31T05:12:49;100801.75;;;15.69;100.00
67457;BME280;54319;52.038;4.640;2023-07-31T05:15:15;100793.78;;;15.67;100.00
67457;BME280;54319;52.038;4.640;2023-07-31T05:17:42;100800.09;;;15.68;100.00
67457;BME280;54319;52.038;4.640;2023-07-31T05:20:09;100789.00;;;15.62;100.00
67457;BME280;54319;52.038;4.640;2023-07-31T05:22:36;100798.44;;;15.67;100.00
67457;BME280;54319;52.038;4.640;2023-07-31T05:25:05;100799.84;;;15.69;100.00
67457;BME280;54319;52.038;4.640;2023-07-31T05:27:32;100788.88;;;15.69;100.00
67457;BME280;54319;52.038;4.640;2023-07-31T05:30:00;100781.69;;;15.68;100.00
67457;BME280;54319;52.038;4.640;2023-07-31T05:32:27;100778.69;;;15.70;100.00
67457;BME280;54319;52.038;4.640;2023-07-31T05:34:54;100775.69;;;15.71;100.00
67457;BME280;54319;52.038;4.640;2023-07-31T05:37:22;100774.63;;;15.72;100.00
67457;BME280;54319;52.038;4.640;2023-07-31T05:39:48;100766.44;;;15.77;100.00
67457;BME280;54319;52.038;4.640;2023-07-31T05:42:17;100772.53;;;15.80;100.00
67457;BME280;54319;52.038;4.640;2023-07-31T05:44:44;100765.38;;;15.78;100.00
67457;BME280;54319;52.038;4.640;2023-07-31T05:47:10;100754.28;;;15.73;100.00
67457;BME280;54319;52.038;4.640;2023-07-31T05:49:37;100756.22;;;15.73;100.00
67457;BME280;54319;52.038;4.640;2023-07-31T05:52:04;100765.72;;;15.82;100.00
67457;BME280;54319;52.038;4.640;2023-07-31T05:54:31;100767.97;;;15.85;100.00
67457;BME280;54319;52.038;4.640;2023-07-31T05:56:58;100751.19;;;15.87;100.00
67457;BME280;54319;52.038;4.640;2023-07-31T05:59:26;100741.28;;;15.86;100.00
67457;BME280;54319;52.038;4.640;2023-07-31T06:01:53;100744.16;;;15.91;100.00
67457;BME280;54319;52.038;4.640;2023-07-31T06:04:19;100774.22;;;15.98;100.00
67457;BME280;54319;52.038;4.640;2023-07-31T06:06:46;100755.25;;;15.96;100.00
67457;BME280;54319;52.038;4.640;2023-07-31T06:09:12;100740.91;;;15.94;100.00
67457;BME280;54319;52.038;4.640;2023-07-31T06:11:46;100733.28;;;15.84;100.00
67457;BME280;54319;52.038;4.640;2023-07-31T06:14:12;100752.72;;;15.95;100.00
67457;BME280;54319;52.038;4.640;2023-07-31T06:16:41;100755.75;;;15.93;100.00
67457;BME280;54319;52.038;4.640;2023-07-31T06:19:10;100747.56;;;15.98;100.00
67457;BME280;54319;52.038;4.640;2023-07-31T06:21:37;100719.03;;;15.87;100.00
67457;BME280;54319;52.038;4.640;2023-07-31T06:24:04;100748.88;;;15.96;100.00
67457;BME280;54319;52.038;4.640;2023-07-31T06:26:33;100737.22;;;16.05;100.00
67457;BME280;54319;52.038;4.640;2023-07-31T06:29:00;100737.06;;;16.12;100.00
67457;BME280;54319;52.038;4.640;2023-07-31T06:31:27;100718.19;;;16.04;100.00
67457;BME280;54319;52.038;4.640;2023-07-31T06:34:02;100724.13;;;16.13;100.00
67457;BME280;54319;52.038;4.640;2023-07-31T06:36:28;100714.19;;;16.12;100.00
67457;BME280;54319;52.038;4.640;2023-07-31T06:38:55;100724.47;;;16.16;100.00
67457;BME280;54319;52.038;4.640;2023-07-31T06:41:21;100728.03;;;16.17;100.00
67457;BME280;54319;52.038;4.640;2023-07-31T06:43:48;100730.78;;;16.17;100.00
67457;BME280;54319;52.038;4.640;2023-07-31T06:46:15;100702.09;;;16.13;100.00
67457;BME280;54319;52.038;4.640;2023-07-31T06:48:41;100723.16;;;16.24;100.00
67457;BME280;54319;52.038;4.640;2023-07-31T06:51:09;100722.59;;;16.22;100.00
67457;BME280;54319;52.038;4.640;2023-07-31T06:53:36;100717.16;;;16.27;100.00
67457;BME280;54319;52.038;4.640;2023-07-31T06:56:03;100707.16;;;16.21;100.00
67457;BME280;54319;52.038;4.640;2023-07-31T06:58:30;100718.25;;;16.26;100.00
67457;BME280;54319;52.038;4.640;2023-07-31T07:00:57;100713.81;;;16.25;100.00
67457;BME280;54319;52.038;4.640;2023-07-31T07:03:23;100710.50;;;16.23;100.00
67457;BME280;54319;52.038;4.640;2023-07-31T07:05:50;100710.31;;;16.30;100.00
67457;BME280;54319;52.038;4.640;2023-07-31T07:08:18;100707.81;;;16.28;100.00
67457;BME280;54319;52.038;4.640;2023-07-31T07:10:45;100721.66;;;16.33;100.00
67457;BME280;54319;52.038;4.640;2023-07-31T07:13:18;100696.63;;;16.35;100.00
67457;BME280;54319;52.038;4.640;2023-07-31T07:15:47;100705.34;;;16.49;100.00
67457;BME280;54319;52.038;4.640;2023-07-31T07:18:14;100710.91;;;16.54;100.00
67457;BME280;54319;52.038;4.640;2023-07-31T07:20:46;100704.38;;;16.60;100.00
67457;BME280;54319;52.038;4.640;2023-07-31T07:23:12;100707.66;;;16.57;100.00
67457;BME280;54319;52.038;4.640;2023-07-31T07:25:41;100712.41;;;16.62;100.00
67457;BME280;54319;52.038;4.640;2023-07-31T07:28:07;100708.56;;;16.63;100.00
67457;BME280;54319;52.038;4.640;2023-07-31T07:30:34;100711.88;;;16.65;100.00
67457;BME280;54319;52.038;4.640;2023-07-31T07:33:01;100705.22;;;16.61;100.00
67457;BME280;54319;52.038;4.640;2023-07-31T07:35:27;100719.22;;;16.59;100.00
67457;BME280;54319;52.038;4.640;2023-07-31T07:37:54;100707.97;;;16.61;100.00
67457;BME280;54319;52.038;4.640;2023-07-31T07:40:22;100706.69;;;16.69;100.00
67457;BME280;54319;52.038;4.640;2023-07-31T07:42:52;100708.22;;;16.59;100.00
67457;BME280;54319;52.038;4.640;2023-07-31T07:45:18;100712.69;;;16.66;100.00
67457;BME280;54319;52.038;4.640;2023-07-31T07:47:45;100721.88;;;16.71;100.00
67457;BME280;54319;52.038;4.640;2023-07-31T07:50:11;100711.75;;;16.77;100.00
67457;BME280;54319;52.038;4.640;2023-07-31T07:52:43;100710.72;;;16.83;100.00
67457;BME280;54319;52.038;4.640;2023-07-31T07:55:09;100703.78;;;16.81;100.00
67457;BME280;54319;52.038;4.640;2023-07-31T07:57:36;100710.19;;;16.86;100.00
67457;BME280;54319;52.038;4.640;2023-07-31T08:00:06;100707.25;;;16.93;100.00
67457;BME280;54319;52.038;4.640;2023-07-31T08:02:33;100699.88;;;16.99;100.00
67457;BME280;54319;52.038;4.640;2023-07-31T08:05:00;100700.75;;;16.99;100.00
67457;BME280;54319;52.038;4.640;2023-07-31T08:07:46;100695.28;;;17.04;100.00
67457;BME280;54319;52.038;4.640;2023-07-31T08:10:20;100676.66;;;16.95;100.00
67457;BME280;54319;52.038;4.640;2023-07-31T08:12:46;100690.13;;;17.13;100.00
67457;BME280;54319;52.038;4.640;2023-07-31T08:15:15;100690.13;;;17.13;100.00
67457;BME280;54319;52.038;4.640;2023-07-31T08:17:41;100681.81;;;17.08;100.00
67457;BME280;54319;52.038;4.640;2023-07-31T08:20:09;100702.44;;;17.05;100.00
67457;BME280;54319;52.038;4.640;2023-07-31T08:22:36;100681.25;;;17.06;100.00
67457;BME280;54319;52.038;4.640;2023-07-31T08:25:03;100693.13;;;17.12;100.00
67457;BME280;54319;52.038;4.640;2023-07-31T08:27:31;100685.66;;;17.07;100.00
67457;BME280;54319;52.038;4.640;2023-07-31T08:29:57;100689.81;;;17.10;100.00
67457;BME280;54319;52.038;4.640;2023-07-31T08:32:25;100693.63;;;17.03;100.00
67457;BME280;54319;52.038;4.640;2023-07-31T08:34:52;100695.03;;;17.06;100.00
67457;BME280;54319;52.038;4.640;2023-07-31T08:37:19;100667.84;;;16.92;100.00
67457;BME280;54319;52.038;4.640;2023-07-31T08:39:46;100684.31;;;17.10;100.00
67457;BME280;54319;52.038;4.640;2023-07-31T08:42:12;100675.75;;;17.06;100.00
67457;BME280;54319;52.038;4.640;2023-07-31T08:44:41;100672.50;;;17.14;100.00
67457;BME280;54319;52.038;4.640;2023-07-31T08:47:14;100679.16;;;17.18;100.00
67457;BME280;54319;52.038;4.640;2023-07-31T08:49:46;100642.19;;;16.87;100.00
67457;BME280;54319;52.038;4.640;2023-07-31T08:52:12;100689.91;;;17.20;100.00
67457;BME280;54319;52.038;4.640;2023-07-31T08:54:39;100669.75;;;17.14;100.00
67457;BME280;54319;52.038;4.640;2023-07-31T08:57:06;100685.56;;;17.24;100.00
67457;BME280;54319;52.038;4.640;2023-07-31T08:59:34;100694.69;;;17.30;100.00
67457;BME280;54319;52.038;4.640;2023-07-31T09:02:05;100676.44;;;17.24;100.00
67457;BME280;54319;52.038;4.640;2023-07-31T09:04:32;100695.84;;;17.34;100.00
67457;BME280;54319;52.038;4.640;2023-07-31T09:07:03;100682.63;;;17.36;100.00
67457;BME280;54319;52.038;4.640;2023-07-31T09:09:30;100690.06;;;17.35;100.00
67457;BME280;54319;52.038;4.640;2023-07-31T09:11:57;100682.91;;;17.34;100.00
67457;BME280;54319;52.038;4.640;2023-07-31T09:14:24;100653.81;;;17.21;100.00
67457;BME280;54319;52.038;4.640;2023-07-31T09:16:53;100687.31;;;17.35;100.00
67457;BME280;54319;52.038;4.640;2023-07-31T09:19:27;100650.78;;;17.23;100.00
67457;BME280;54319;52.038;4.640;2023-07-31T09:21:54;100681.00;;;17.40;100.00
67457;BME280;54319;52.038;4.640;2023-07-31T09:24:30;100683.88;;;17.50;100.00
67457;BME280;54319;52.038;4.640;2023-07-31T09:26:58;100685.53;;;17.52;100.00
67457;BME280;54319;52.038;4.640;2023-07-31T09:29:26;100663.44;;;17.46;100.00
67457;BME280;54319;52.038;4.640;2023-07-31T09:31:54;100669.78;;;17.52;100.00
67457;BME280;54319;52.038;4.640;2023-07-31T09:34:28;100671.28;;;17.65;100.00
67457;BME280;54319;52.038;4.640;2023-07-31T09:36:58;100686.47;;;17.68;100.00
67457;BME280;54319;52.038;4.640;2023-07-31T09:39:29;100689.19;;;17.62;100.00
67457;BME280;54319;52.038;4.640;2023-07-31T09:41:56;100674.56;;;17.62;100.00
67457;BME280;54319;52.038;4.640;2023-07-31T09:44:37;100679.75;;;17.58;100.00
67457;BME280;54319;52.038;4.640;2023-07-31T09:47:05;100667.13;;;17.62;100.00
67457;BME280;54319;52.038;4.640;2023-07-31T09:49:31;100671.25;;;17.60;100.00
67457;BME280;54319;52.038;4.640;2023-07-31T09:51:58;100671.84;;;17.67;100.00
67457;BME280;54319;52.038;4.640;2023-07-31T09:54:25;100656.41;;;17.71;100.00
67457;BME280;54319;52.038;4.640;2023-07-31T09:56:54;100651.72;;;17.67;100.00
67457;BME280;54319;52.038;4.640;2023-07-31T09:59:21;100671.97;;;17.83;100.00
67457;BME280;54319;52.038;4.640;2023-07-31T10:01:48;100664.72;;;17.76;100.00
67457;BME280;54319;52.038;4.640;2023-07-31T10:04:17;100667.03;;;17.85;100.00
67457;BME280;54319;52.038;4.640;2023-07-31T10:06:46;100651.44;;;17.68;100.00
67457;BME280;54319;52.038;4.640;2023-07-31T10:09:18;100677.53;;;17.88;100.00
67457;BME280;54319;52.038;4.640;2023-07-31T10:11:47;100670.41;;;17.97;100.00
67457;BME280;54319;52.038;4.640;2023-07-31T10:14:20;100662.50;;;18.11;100.00
67457;BME280;54319;52.038;4.640;2023-07-31T10:16:47;100657.56;;;18.18;100.00
67457;BME280;54319;52.038;4.640;2023-07-31T10:19:14;100671.72;;;18.32;100.00
67457;BME280;54319;52.038;4.640;2023-07-31T10:21:42;100678.06;;;18.33;100.00
67457;BME280;54319;52.038;4.640;2023-07-31T10:24:08;100672.06;;;18.41;100.00
67457;BME280;54319;52.038;4.640;2023-07-31T10:26:37;100671.50;;;18.39;100.00
67457;BME280;54319;52.038;4.640;2023-07-31T10:29:05;100684.47;;;18.44;100.00
67457;BME280;54319;52.038;4.640;2023-07-31T10:31:44;100658.78;;;18.38;100.00
67457;BME280;54319;52.038;4.640;2023-07-31T10:34:12;100687.72;;;18.30;100.00
67457;BME280;54319;52.038;4.640;2023-07-31T10:36:40;100669.50;;;18.24;100.00
67457;BME280;54319;52.038;4.640;2023-07-31T10:39:37;100665.06;;;18.23;100.00
67457;BME280;54319;52.038;4.640;2023-07-31T10:42:12;100670.88;;;18.32;100.00
67457;BME280;54319;52.038;4.640;2023-07-31T10:44:46;100639.09;;;18.19;100.00
67457;BME280;54319;52.038;4.640;2023-07-31T10:47:14;100659.63;;;18.44;100.00
67457;BME280;54319;52.038;4.640;2023-07-31T10:49:44;100661.81;;;18.42;100.00
67457;BME280;54319;52.038;4.640;2023-07-31T10:52:12;100665.69;;;18.41;100.00
67457;BME280;54319;52.038;4.640;2023-07-31T10:54:42;100654.63;;;18.35;100.00
67457;BME280;54319;52.038;4.640;2023-07-31T10:57:19;100639.72;;;18.36;100.00
67457;BME280;54319;52.038;4.640;2023-07-31T10:59:47;100672.31;;;18.45;100.00
67457;BME280;54319;52.038;4.640;2023-07-31T11:02:24;100649.63;;;18.27;100.00
67457;BME280;54319;52.038;4.640;2023-07-31T11:05:07;100643.88;;;18.39;100.00
67457;BME280;54319;52.038;4.640;2023-07-31T11:07:47;100652.19;;;18.44;100.00
67457;BME280;54319;52.038;4.640;2023-07-31T11:10:17;100650.53;;;18.43;100.00
67457;BME280;54319;52.038;4.640;2023-07-31T11:12:45;100646.13;;;18.52;100.00
67457;BME280;54319;52.038;4.640;2023-07-31T11:15:12;100641.72;;;18.57;100.00
67457;BME280;54319;52.038;4.640;2023-07-31T11:17:39;100638.97;;;18.57;100.00
67457;BME280;54319;52.038;4.640;2023-07-31T11:20:06;100643.69;;;18.66;100.00
67457;BME280;54319;52.038;4.640;2023-07-31T11:22:34;100642.06;;;18.76;100.00
67457;BME280;54319;52.038;4.640;2023-07-31T11:25:01;100650.63;;;18.79;100.00
67457;BME280;54319;52.038;4.640;2023-07-31T11:27:29;100645.69;;;18.92;100.00
67457;BME280;54319;52.038;4.640;2023-07-31T11:30:09;100630.50;;;18.94;100.00
67457;BME280;54319;52.038;4.640;2023-07-31T11:32:37;100649.31;;;18.98;100.00
67457;BME280;54319;52.038;4.640;2023-07-31T11:35:04;100629.63;;;18.78;100.00
67457;BME280;54319;52.038;4.640;2023-07-31T11:37:40;100631.28;;;18.79;100.00
67457;BME280;54319;52.038;4.640;2023-07-31T11:40:08;100626.66;;;19.01;100.00
67457;BME280;54319;52.038;4.640;2023-07-31T11:42:36;100624.16;;;18.99;100.00
67457;BME280;54319;52.038;4.640;2023-07-31T11:45:03;100642.69;;;18.99;100.00
67457;BME280;54319;52.038;4.640;2023-07-31T11:47:32;100639.84;;;18.83;100.00
67457;BME280;54319;52.038;4.640;2023-07-31T11:50:03;100652.84;;;18.77;100.00
67457;BME280;54319;52.038;4.640;2023-07-31T11:52:33;100640.94;;;18.72;100.00
67457;BME280;54319;52.038;4.640;2023-07-31T11:55:00;100646.78;;;18.86;100.00
67457;BME280;54319;52.038;4.640;2023-07-31T11:57:29;100649.56;;;18.91;100.00
67457;BME280;54319;52.038;4.640;2023-07-31T11:59:57;100657.00;;;18.85;100.00
67457;BME280;54319;52.038;4.640;2023-07-31T12:02:24;100648.44;;;18.82;100.00
67457;BME280;54319;52.038;4.640;2023-07-31T12:04:51;100631.00;;;18.81;100.00
67457;BME280;54319;52.038;4.640;2023-07-31T12:07:18;100642.06;;;18.86;100.00
67457;BME280;54319;52.038;4.640;2023-07-31T12:09:52;100607.22;;;18.75;100.00
67457;BME280;54319;52.038;4.640;2023-07-31T12:12:22;100629.09;;;18.87;100.00
67457;BME280;54319;52.038;4.640;2023-07-31T12:14:50;100626.59;;;18.90;100.00
67457;BME280;54319;52.038;4.640;2023-07-31T12:17:19;100622.72;;;18.91;100.00
67457;BME280;54319;52.038;4.640;2023-07-31T12:19:48;100607.78;;;18.82;100.00
67457;BME280;54319;52.038;4.640;2023-07-31T12:22:21;100615.28;;;18.97;100.00
67457;BME280;54319;52.038;4.640;2023-07-31T12:25:04;100618.94;;;19.13;100.00
67457;BME280;54319;52.038;4.640;2023-07-31T12:27:32;100606.75;;;19.14;100.00
67457;BME280;54319;52.038;4.640;2023-07-31T12:29:59;100605.91;;;19.08;100.00
67457;BME280;54319;52.038;4.640;2023-07-31T12:32:30;100607.03;;;19.13;100.00
67457;BME280;54319;52.038;4.640;2023-07-31T12:34:59;100595.69;;;19.19;100.00
67457;BME280;54319;52.038;4.640;2023-07-31T12:37:28;100613.69;;;19.27;100.00
67457;BME280;54319;52.038;4.640;2023-07-31T12:39:55;100580.22;;;19.23;100.00
67457;BME280;54319;52.038;4.640;2023-07-31T12:42:26;100600.13;;;19.46;100.00
67457;BME280;54319;52.038;4.640;2023-07-31T12:44:52;100594.59;;;19.36;100.00
67457;BME280;54319;52.038;4.640;2023-07-31T12:47:36;100553.41;;;19.14;100.00